Flight Track Log - Related Links

Times and Time Zones

All times are in EDT time to prevent confusion due to time zone crossing. See the AER41 flight status page for this flight to view local times or setup timezone preferences in your user account.

Time Position Orientation Groundspeed Altitude Reporting Facility
EDT Latitude Longitude Course Direction KTS MPH feet Rate Location/Type
Fri 07:31:00 AM 61.0792 -149.2309 108° East  Level FlightAware Approximate
Fri 07:32:00 AM 61.0623 -149.1062 102° East  Level FlightAware Approximate
Fri 07:32:17 AM 61.3333 -149.6667 105° East 180 207 10,200  Level Anchorage Center
Fri 07:33:00 AM 61.0497 -148.9792 102° East  Level FlightAware Approximate
Fri 07:33:17 AM 61.3333 -149.5667 90° East 190 219 11,600  Level Anchorage Center
Fri 07:34:00 AM 61.0369 -148.8524 102° East  Level FlightAware Approximate
Fri 07:34:17 AM 61.3333 -149.4500 90° East 190 219 12,900  Level Anchorage Center
Fri 07:35:00 AM 61.0214 -148.7271 105° East  Level FlightAware Approximate
Fri 07:35:17 AM 61.3167 -149.3500 109° East 180 207 13,900  Level Anchorage Center
Fri 07:36:00 AM 61.0047 -148.6023 105° East  Level FlightAware Approximate
Fri 07:36:17 AM 61.3000 -149.2500 109° East 170 196 15,400  Level Anchorage Center
Fri 07:37:00 AM 60.9879 -148.4777 105° East  Level FlightAware Approximate
Fri 07:37:17 AM 61.2833 -149.1667 113° Southeast 190 219 16,400  Level Anchorage Center
Fri 07:38:17 AM 61.2667 -149.0667 109° East 180 207 18,200 1,350 Climbing Anchorage Center
Fri 07:39:17 AM 61.2500 -148.9500 106° East 190 219 19,100 900 Climbing Anchorage Center
Fri 07:40:17 AM 61.2333 -148.8500 109° East 180 207 20,000 1,041 Climbing Anchorage Center
Fri 07:41:18 AM 61.2167 -148.7333 106° East 190 219 21,200 843 Climbing Anchorage Center
Fri 07:42:18 AM 61.2000 -148.6333 109° East 190 219 21,700 750 Climbing Anchorage Center
Fri 07:43:18 AM 61.2000 -148.5167 90° East 190 219 22,700 650 Climbing Anchorage Center
Fri 07:44:18 AM 61.1833 -148.4167 109° East 200 230 23,000 150 Climbing Anchorage Center
Fri 07:45:18 AM 61.1667 -148.3000 106° East 210 242 23,000  Level Anchorage Center
Fri 07:46:18 AM 61.1500 -148.1833 106° East 230 265 23,000  Level Anchorage Center
Fri 07:47:19 AM 61.1167 -148.0500 117° Southeast 240 276 23,000  Level Anchorage Center
Fri 07:48:19 AM 61.1000 -147.9167 104° East 230 265 23,000  Level Anchorage Center
Fri 07:49:19 AM 61.1000 -147.7833 90° East 240 276 23,000  Level Anchorage Center
Fri 07:50:18 AM 61.0667 -147.6333 115° Southeast 260 299 23,000  Level Anchorage Center
Fri 07:51:19 AM 61.0500 -147.5000 104° East 230 265 23,000  Level Anchorage Center
Fri 07:52:19 AM 61.0333 -147.3667 104° East 240 276 23,000  Level Anchorage Center
Fri 07:53:19 AM 61.0167 -147.2333 104° East 240 276 23,000  Level Anchorage Center
Fri 07:54:19 AM 60.9833 -147.1000 117° Southeast 250 288 23,000  Level Anchorage Center
Fri 07:55:19 AM 60.9667 -146.9667 104° East 240 276 23,000  Level Anchorage Center
Fri 07:56:19 AM 60.9500 -146.8333 104° East 240 276 23,000  Level Anchorage Center
Fri 07:57:19 AM 60.9167 -146.7000 117° Southeast 240 276 23,000  Level Anchorage Center
Fri 07:58:20 AM 60.9000 -146.5833 106° East 250 288 23,000  Level Anchorage Center
Fri 07:59:20 AM 60.8833 -146.4333 103° East 250 288 23,000  Level Anchorage Center
Fri 08:00:20 AM 60.8667 -146.3000 104° East 240 276 23,000  Level Anchorage Center
Fri 08:01:20 AM 60.8500 -146.1667 104° East 240 276 23,000  Level Anchorage Center
Fri 08:02:20 AM 60.8167 -146.0333 117° Southeast 240 276 23,000  Level Anchorage Center
Fri 08:03:20 AM 60.8000 -145.9167 106° East 230 265 23,000  Level Anchorage Center
Fri 08:04:20 AM 60.7833 -145.7833 104° East 240 276 23,000  Level Anchorage Center
Fri 08:05:21 AM 60.7500 -145.6500 117° Southeast 240 276 23,000  Level Anchorage Center
Fri 08:06:21 AM 60.7333 -145.5167 104° East 240 276 23,000  Level Anchorage Center
Fri 08:07:21 AM 60.7167 -145.3833 104° East 250 288 23,000  Level Anchorage Center
Fri 08:08:21 AM 60.6833 -145.2667 120° Southeast 240 276 23,000  Level Anchorage Center
Fri 08:09:21 AM 60.6667 -145.1333 104° East 240 276 23,000  Level Anchorage Center
Fri 08:10:21 AM 60.6500 -145.0000 104° East 240 276 23,000  Level Anchorage Center
Fri 08:11:21 AM 60.6167 -144.8667 117° Southeast 240 276 23,000  Level Anchorage Center
Fri 08:12:21 AM 60.6000 -144.7500 106° East 230 265 23,000  Level Anchorage Center
Fri 08:13:21 AM 60.5833 -144.6167 104° East 240 276 23,000  Level Anchorage Center
Fri 08:14:21 AM 60.5500 -144.4833 117° Southeast 240 276 23,000  Level Anchorage Center
Fri 08:15:21 AM 60.5333 -144.3667 106° East 240 276 23,000  Level Anchorage Center
Fri 08:16:22 AM 60.5000 -144.2333 117° Southeast 230 265 23,000  Level Anchorage Center
Fri 08:17:22 AM 60.4833 -144.1167 106° East 230 265 23,000  Level Anchorage Center
Fri 08:18:22 AM 60.4500 -144.0000 120° Southeast 250 288 23,000  Level Anchorage Center
Fri 08:19:22 AM 60.4333 -143.8667 104° East 230 265 23,000  Level Anchorage Center
Fri 08:20:22 AM 60.4000 -143.7500 120° Southeast 240 276 23,000  Level Anchorage Center
Fri 08:21:22 AM 60.3833 -143.6167 104° East 230 265 23,000  Level Anchorage Center
Fri 08:22:22 AM 60.3500 -143.5000 120° Southeast 250 288 23,000  Level Anchorage Center
Fri 08:23:23 AM 60.3333 -143.3667 104° East 240 276 23,000  Level Anchorage Center
Fri 08:24:23 AM 60.3167 -143.2333 104° East 240 276 23,000  Level Anchorage Center
Fri 08:25:23 AM 60.2833 -143.1167 120° Southeast 240 276 23,000  Level Anchorage Center
Fri 08:26:23 AM 60.2667 -142.9833 104° East 240 276 23,000  Level Anchorage Center
Fri 08:27:23 AM 60.2333 -142.8667 120° Southeast 240 276 23,000 50 Level Anchorage Center
Fri 08:28:23 AM 60.2167 -142.7333 104° East 250 288 23,100 50 Climbing Anchorage Center
Fri 08:29:23 AM 60.1833 -142.6167 120° Southeast 240 276 23,100 -50 Level Anchorage Center
Fri 08:30:23 AM 60.1667 -142.4833 104° East 230 265 23,000 -50 Descending Anchorage Center
Fri 08:31:23 AM 60.1333 -142.3667 120° Southeast 240 276 23,000  Level Anchorage Center
Fri 08:32:23 AM 60.1167 -142.2333 104° East 240 276 23,000 50 Level Anchorage Center
Fri 08:33:23 AM 60.0833 -142.1167 120° Southeast 250 288 23,100 50 Climbing Anchorage Center
Fri 08:34:24 AM 60.0667 -141.9833 104° East 240 276 23,100  Level Anchorage Center
Fri 08:35:24 AM 60.0333 -141.8500 117° Southeast 240 276 23,100  Level Anchorage Center
Fri 08:36:24 AM 60.0167 -141.7167 104° East 260 299 23,100 -50 Level Anchorage Center
Fri 08:37:24 AM 60.0000 -141.5833 104° East 250 288 23,000 -100 Descending Anchorage Center
Fri 08:38:24 AM 59.9667 -141.4667 120° Southeast 250 288 22,900 -700 Descending Anchorage Center
Fri 08:39:24 AM 59.9500 -141.3333 104° East 260 299 21,600 -1,500 Descending Anchorage Center
Fri 08:40:24 AM 59.9167 -141.2000 116° Southeast 250 288 19,900 -1,983 Descending Anchorage Center
Fri 08:41:25 AM 59.8833 -141.0667 116° Southeast 260 299 17,600 -1,934 Descending Anchorage Center
Fri 08:42:25 AM 59.8667 -140.9333 104° East 260 299 16,000 -1,450 Descending Anchorage Center
Fri 08:43:25 AM 59.8333 -140.8000 116° Southeast 260 299 14,700 -1,250 Descending Anchorage Center
Fri 08:44:25 AM 59.8000 -140.6667 116° Southeast 260 299 13,500 -1,150 Descending Anchorage Center
Fri 08:45:25 AM 59.7667 -140.5500 120° Southeast 240 276 12,400 -1,050 Descending Anchorage Center
Fri 08:46:25 AM 59.7333 -140.4167 116° Southeast 250 288 11,400 -1,100 Descending Anchorage Center
Fri 08:47:25 AM 59.7167 -140.2833 104° East 250 288 10,200 -1,250 Descending Anchorage Center
Fri 08:48:25 AM 59.6833 -140.1667 119° Southeast 250 288 8,900 -1,537 Descending Anchorage Center
Fri 08:49:26 AM 59.6667 -140.0500 106° East 240 276 7,100 -1,700 Descending Anchorage Center
Fri 08:50:25 AM 59.6500 -139.9500 108° East 210 242 5,500 -1,815 Descending Anchorage Center
Fri 08:51:25 AM 59.6167 -139.8667 128° Southeast 190 219 3,500 -1,392 Descending Anchorage Center
Fri 08:53:26 AM 59.5333 -139.7333 141° Southeast 140 161 1,300 -961 Descending Anchorage Center
Fri 08:54:26 AM 59.5167 -139.6833 123° Southeast 110 127 600 -600 Descending Anchorage Center
Fri 08:55:26 AM 59.5000 -139.6500 135° Southeast 40 46 100 -500 Descending Anchorage Center
Fri 08:57:00 AM 59.5033 -139.6602 North  Level Estimated
Fri 09:04:00 AM 59.5000 -139.6500 North  Level FlightAware Approximate
Fri 09:05:00 AM 59.5033 -139.6602 North  Level Estimated
Fri 09:06:00 AM 59.5000 -139.6500 North  Level FlightAware Approximate
Fri 09:07:00 AM 59.5033 -139.6602 North  Level Estimated
Fri 09:08:00 AM 59.5000 -139.6500 North  Level FlightAware Approximate
Fri 09:09:00 AM 59.5033 -139.6602 North  Level Estimated
Fri 09:10:00 AM 59.5000 -139.6500 North  Level FlightAware Approximate
Fri 09:11:00 AM 59.5033 -139.6602 North  Level Estimated

Login

Don't have an account? Register now (free) for customized features, flight alerts, and more!